Time;durP1;ratioP1;P1;durP2;ratioP2;P2;SDS_P1;SDS_P2;PMS_P1;PMS_P2;Temp;Humidity;BMP_temperature;BMP_pressure;BME280_temperature;BME280_humidity;BME280_pressure;Samples;Min_cycle;Max_cycle;Signal;HPM_P1;HPM_P2
2021/03/26 00:01:30;;;;;;;21.17;16.47;;;6.60;99.90;;;;;;5056140;28;20257;-78
2021/03/26 00:03:58;;;;;;;16.60;14.83;;;6.60;99.90;;;;;;5055613;28;20188;-78
2021/03/26 00:06:29;;;;;;;17.70;15.87;;;6.60;99.90;;;;;;5054970;28;20723;-78
2021/03/26 00:08:57;;;;;;;17.10;15.07;;;6.60;99.90;;;;;;5055641;28;20221;-78
2021/03/26 00:11:25;;;;;;;20.00;16.37;;;6.60;99.90;;;;;;5049761;28;20229;-77
2021/03/26 00:13:51;;;;;;;17.87;16.03;;;6.70;99.90;;;;;;5052143;28;20195;-77
2021/03/26 00:16:18;;;;;;;17.47;15.60;;;6.70;99.90;;;;;;5050317;28;20218;-77
2021/03/26 00:18:45;;;;;;;16.67;14.70;;;6.70;99.90;;;;;;5053561;28;20258;-78
2021/03/26 00:21:12;;;;;;;22.40;15.90;;;6.70;99.90;;;;;;5054090;28;20653;-78
2021/03/26 00:23:39;;;;;;;17.43;15.53;;;6.80;99.90;;;;;;5053769;28;20258;-78
2021/03/26 00:26:06;;;;;;;18.93;15.63;;;6.80;99.90;;;;;;5041490;28;20224;-77
2021/03/26 00:28:32;;;;;;;17.83;15.77;;;6.80;99.90;;;;;;5054778;28;20257;-77
2021/03/26 00:30:59;;;;;;;21.63;16.93;;;6.90;99.90;;;;;;5054447;28;20488;-78
2021/03/26 00:33:25;;;;;;;18.73;16.00;;;6.90;99.90;;;;;;5051945;28;20204;-78
2021/03/26 00:35:54;;;;;;;17.93;15.57;;;6.90;99.90;;;;;;5054755;28;20231;-77
2021/03/26 00:38:20;;;;;;;16.13;14.43;;;7.00;99.90;;;;;;5056270;28;20196;-77
2021/03/26 00:40:48;;;;;;;15.83;14.23;;;7.00;99.90;;;;;;5055314;28;20207;-77
2021/03/26 00:43:14;;;;;;;16.27;14.53;;;7.00;99.90;;;;;;5056126;28;20556;-76
2021/03/26 00:45:41;;;;;;;16.87;13.97;;;7.00;99.90;;;;;;5055653;28;20205;-77
2021/03/26 00:48:09;;;;;;;14.77;13.20;;;7.00;99.90;;;;;;5053834;28;20220;-78
2021/03/26 00:50:38;;;;;;;15.07;13.43;;;7.00;99.90;;;;;;5054617;28;20191;-78
2021/03/26 00:53:10;;;;;;;17.03;15.00;;;7.10;99.90;;;;;;5054093;28;20195;-78
2021/03/26 00:55:37;;;;;;;15.40;13.90;;;7.00;99.90;;;;;;5067688;28;20696;-78
2021/03/26 00:58:04;;;;;;;17.93;15.23;;;7.00;99.90;;;;;;5052133;28;20267;-78
2021/03/26 01:00:32;;;;;;;15.60;14.00;;;7.00;99.90;;;;;;5052225;28;20205;-78
2021/03/26 01:02:59;;;;;;;19.63;14.40;;;6.90;99.90;;;;;;5068864;28;20232;-77
2021/03/26 01:05:28;;;;;;;15.03;13.50;;;6.80;99.90;;;;;;5075202;23;20931;-78
2021/03/26 01:07:55;;;;;;;18.43;15.07;;;6.80;99.90;;;;;;5053065;28;20230;-79
2021/03/26 01:10:30;;;;;;;17.57;15.23;;;6.70;99.90;;;;;;5052902;28;20764;-79
2021/03/26 01:12:57;;;;;;;17.20;14.70;;;6.70;99.90;;;;;;5052814;28;20282;-79
2021/03/26 01:15:27;;;;;;;17.27;15.47;;;6.60;99.90;;;;;;5052423;28;20759;-79
2021/03/26 01:17:55;;;;;;;16.17;14.67;;;6.60;99.90;;;;;;5045299;28;20187;-79
2021/03/26 01:20:25;;;;;;;16.37;14.17;;;6.60;99.90;;;;;;5052720;28;20679;-79
2021/03/26 01:22:52;;;;;;;16.87;15.17;;;6.60;99.90;;;;;;5054364;28;20199;-78
2021/03/26 01:25:24;;;;;;;18.07;15.37;;;6.60;99.90;;;;;;5050644;28;20227;-79
2021/03/26 01:28:03;;;;;;;15.57;14.07;;;6.60;99.90;;;;;;5057883;28;20249;-78
2021/03/26 01:30:31;;;;;;;16.27;14.67;;;6.60;99.90;;;;;;5055738;28;21057;-79
2021/03/26 01:32:58;;;;;;;15.87;14.27;;;6.60;99.90;;;;;;5059441;28;20275;-79
2021/03/26 01:35:28;;;;;;;15.50;13.90;;;6.70;99.90;;;;;;5056901;28;20215;-78
2021/03/26 01:37:54;;;;;;;16.97;14.80;;;6.70;99.90;;;;;;5053880;28;20245;-79
2021/03/26 01:40:25;;;;;;;16.10;14.10;;;6.60;99.90;;;;;;5057966;28;20222;-78
2021/03/26 01:42:52;;;;;;;14.90;13.40;;;6.60;99.90;;;;;;5054349;28;20191;-80
2021/03/26 01:45:24;;;;;;;17.03;15.33;;;6.60;99.90;;;;;;5057344;28;20198;-79
2021/03/26 01:47:55;;;;;;;17.53;15.50;;;6.60;99.90;;;;;;5057633;28;20215;-79
2021/03/26 01:50:28;;;;;;;16.63;14.93;;;6.60;99.90;;;;;;5057590;28;20237;-79
2021/03/26 01:52:55;;;;;;;16.37;14.67;;;6.60;99.90;;;;;;5057523;28;20219;-78
2021/03/26 01:55:25;;;;;;;15.80;14.20;;;6.60;99.90;;;;;;5056617;28;20556;-78
2021/03/26 01:57:54;;;;;;;16.63;14.80;;;6.70;99.90;;;;;;5057342;28;20284;-78
2021/03/26 02:00:30;;;;;;;17.60;15.67;;;6.60;99.90;;;;;;5057287;28;20204;-79
2021/03/26 02:03:03;;;;;;;16.83;15.17;;;6.60;99.90;;;;;;5057416;28;20673;-79
2021/03/26 02:05:37;;;;;;;16.50;14.70;;;6.50;99.90;;;;;;5048631;28;20605;-79
2021/03/26 02:08:28;;;;;;;16.80;15.07;;;6.50;99.90;;;;;;5056864;28;20227;-79
2021/03/26 02:11:01;;;;;;;17.07;15.27;;;6.50;99.90;;;;;;5057987;28;20193;-79
2021/03/26 02:13:34;;;;;;;16.10;14.60;;;6.50;99.90;;;;;;5056806;28;20707;-79
2021/03/26 02:16:13;;;;;;;15.80;14.30;;;6.50;99.90;;;;;;5055789;28;20251;-78
2021/03/26 02:18:57;;;;;;;16.60;14.93;;;6.50;99.90;;;;;;5055913;28;20189;-79
2021/03/26 02:21:27;;;;;;;17.03;15.27;;;6.50;99.90;;;;;;5056789;28;20195;-78
2021/03/26 02:23:57;;;;;;;16.77;14.97;;;6.50;99.90;;;;;;5050811;28;20195;-79
2021/03/26 02:26:27;;;;;;;17.17;15.37;;;6.40;99.90;;;;;;5056028;28;20215;-79
2021/03/26 02:28:55;;;;;;;15.27;13.77;;;6.40;99.90;;;;;;5056072;28;20243;-79
2021/03/26 02:32:03;;;;;;;17.47;15.43;;;6.40;99.90;;;;;;5034252;28;20350;-78
2021/03/26 02:34:31;;;;;;;16.80;15.03;;;6.50;99.90;;;;;;5006583;28;20201;-77
2021/03/26 02:37:00;;;;;;;17.90;15.13;;;6.50;99.90;;;;;;5026189;28;20223;-79
2021/03/26 02:39:32;;;;;;;17.43;15.73;;;6.50;99.90;;;;;;5053826;28;20191;-79
2021/03/26 02:42:06;;;;;;;18.73;15.37;;;6.50;99.90;;;;;;5050685;28;20191;-79
2021/03/26 02:44:51;;;;;;;17.77;15.77;;;6.40;99.90;;;;;;5053777;28;20218;-78
2021/03/26 02:47:36;;;;;;;18.33;16.43;;;6.40;99.90;;;;;;5055547;28;20245;-78
2021/03/26 02:50:20;;;;;;;15.87;14.47;;;6.40;99.90;;;;;;5047786;28;20213;-78
2021/03/26 02:52:52;;;;;;;16.80;15.20;;;6.30;99.90;;;;;;5055869;28;20219;-78
2021/03/26 02:55:25;;;;;;;16.13;14.53;;;6.30;99.90;;;;;;5054610;28;20292;-78
2021/03/26 02:57:57;;;;;;;15.50;14.07;;;6.30;99.90;;;;;;5055198;28;20195;-78
2021/03/26 03:00:29;;;;;;;15.63;14.23;;;6.30;99.90;;;;;;5055313;28;20203;-78
2021/03/26 03:02:59;;;;;;;15.27;13.80;;;6.20;99.90;;;;;;5054661;28;20203;-77
2021/03/26 03:05:30;;;;;;;15.50;13.93;;;6.20;99.90;;;;;;5054016;28;20261;-78
2021/03/26 03:08:02;;;;;;;15.30;13.73;;;6.20;99.90;;;;;;5054776;28;20203;-79
2021/03/26 03:10:49;;;;;;;17.40;15.70;;;6.20;99.90;;;;;;5055200;28;20200;-78
2021/03/26 03:13:20;;;;;;;18.03;15.53;;;6.20;99.90;;;;;;5057717;28;20203;-78
2021/03/26 03:15:56;;;;;;;16.57;14.93;;;6.10;99.90;;;;;;5058335;28;20215;-78
2021/03/26 03:18:28;;;;;;;21.00;15.77;;;6.10;99.90;;;;;;5058591;28;20684;-78
2021/03/26 03:21:01;;;;;;;17.70;15.00;;;6.10;99.90;;;;;;5058291;28;20222;-78
2021/03/26 03:23:37;;;;;;;17.17;15.57;;;6.10;99.90;;;;;;5058365;28;20198;-78
2021/03/26 03:26:31;;;;;;;16.03;14.53;;;6.00;99.90;;;;;;5057935;28;20219;-78
2021/03/26 03:29:06;;;;;;;17.07;15.27;;;6.00;99.90;;;;;;5058210;28;20227;-78
2021/03/26 03:31:56;;;;;;;16.80;15.30;;;6.00;99.90;;;;;;5052633;28;20195;-78
2021/03/26 03:34:30;;;;;;;18.93;16.37;;;6.00;99.90;;;;;;5056371;28;20194;-78
2021/03/26 03:37:08;;;;;;;17.93;16.10;;;6.10;99.90;;;;;;5055431;28;20219;-77
2021/03/26 03:39:44;;;;;;;19.47;17.47;;;6.10;99.90;;;;;;5063814;28;20194;-78
2021/03/26 03:42:19;;;;;;;17.03;15.37;;;6.10;99.90;;;;;;5051130;28;20281;-75
2021/03/26 03:44:52;;;;;;;19.20;16.87;;;6.10;99.90;;;;;;5053527;28;20286;-78
2021/03/26 03:47:27;;;;;;;16.27;14.57;;;6.10;99.90;;;;;;5053410;28;20306;-75
2021/03/26 03:50:20;;;;;;;16.83;15.17;;;6.10;99.90;;;;;;5053875;28;20687;-75
2021/03/26 03:52:54;;;;;;;18.13;16.47;;;6.10;99.90;;;;;;5054236;28;20191;-75
2021/03/26 03:55:25;;;;;;;17.37;15.53;;;6.10;99.90;;;;;;5051764;28;20213;-75
2021/03/26 03:58:03;;;;;;;19.53;16.20;;;6.10;99.90;;;;;;5052075;28;20253;-76
2021/03/26 04:00:33;;;;;;;20.60;17.40;;;6.10;99.90;;;;;;5052559;28;20674;-75
2021/03/26 04:03:13;;;;;;;19.90;17.73;;;6.10;99.90;;;;;;5052991;28;20195;-76
2021/03/26 04:05:44;;;;;;;19.33;17.43;;;6.20;99.90;;;;;;5062844;28;20776;-78
2021/03/26 04:08:23;;;;;;;17.97;16.17;;;6.20;99.90;;;;;;5054993;28;20627;-78
2021/03/26 04:10:52;;;;;;;19.03;16.80;;;6.20;99.90;;;;;;5054621;28;20195;-80
2021/03/26 04:13:24;;;;;;;18.03;16.33;;;6.20;99.90;;;;;;5056164;28;20218;-78
2021/03/26 04:15:54;;;;;;;16.93;15.43;;;6.30;99.90;;;;;;5054947;28;20224;-78
2021/03/26 04:18:34;;;;;;;17.47;15.77;;;6.30;99.90;;;;;;5054490;28;20884;-80
2021/03/26 04:21:25;;;;;;;19.00;17.07;;;6.30;99.90;;;;;;5055045;28;20934;-81
2021/03/26 04:24:10;;;;;;;17.53;15.77;;;6.30;99.90;;;;;;5054850;28;20231;-80
2021/03/26 04:27:06;;;;;;;17.70;15.97;;;6.20;99.90;;;;;;5055440;28;20222;-80
2021/03/26 04:30:02;;;;;;;19.50;16.43;;;6.20;99.90;;;;;;5055349;28;20203;-81
2021/03/26 04:32:39;;;;;;;18.50;16.60;;;6.20;99.90;;;;;;5043254;28;20206;-77
2021/03/26 04:35:09;;;;;;;18.70;16.80;;;6.20;99.90;;;;;;5050849;28;20286;-78
2021/03/26 04:37:41;;;;;;;18.70;16.37;;;6.10;99.90;;;;;;5052546;28;20200;-77
2021/03/26 04:40:17;;;;;;;18.20;16.40;;;6.10;99.90;;;;;;5050350;28;20194;-77
2021/03/26 04:42:56;;;;;;;21.87;16.57;;;6.00;99.90;;;;;;5052356;28;20577;-77
2021/03/26 04:45:32;;;;;;;19.37;17.33;;;6.00;99.90;;;;;;5052198;28;20233;-79
2021/03/26 04:48:24;;;;;;;20.93;17.30;;;6.00;99.90;;;;;;5047437;28;20215;-83
2021/03/26 04:51:12;;;;;;;20.40;17.77;;;6.00;99.90;;;;;;5056677;28;20202;-83
2021/03/26 04:54:14;;;;;;;18.37;16.53;;;5.90;99.90;;;;;;5042484;28;20265;-85
2021/03/26 04:56:52;;;;;;;17.47;15.80;;;5.90;99.90;;;;;;5055050;28;20252;-83
2021/03/26 04:59:25;;;;;;;19.50;17.50;;;5.80;99.90;;;;;;5055535;28;20198;-84
2021/03/26 05:02:05;;;;;;;20.27;18.17;;;5.70;99.90;;;;;;5055332;28;20206;-83
2021/03/26 05:04:37;;;;;;;19.73;17.27;;;5.80;99.90;;;;;;5054945;28;20223;-83
2021/03/26 05:07:08;;;;;;;17.80;16.07;;;5.80;99.90;;;;;;5055458;28;20261;-83
2021/03/26 05:09:39;;;;;;;18.20;16.30;;;5.80;99.90;;;;;;5063547;28;20215;-83
2021/03/26 05:12:21;;;;;;;17.33;15.77;;;5.70;99.90;;;;;;5054067;28;20588;-83
2021/03/26 05:14:54;;;;;;;17.37;15.67;;;5.70;99.90;;;;;;5053048;28;20647;-84
2021/03/26 05:17:27;;;;;;;22.07;17.53;;;5.70;99.90;;;;;;5053719;28;20219;-84
2021/03/26 05:20:34;;;;;;;19.43;16.40;;;5.70;99.90;;;;;;5041111;28;20224;-84
2021/03/26 05:23:24;;;;;;;17.63;15.87;;;5.60;99.90;;;;;;5053564;28;20242;-84
2021/03/26 05:26:01;;;;;;;18.67;16.73;;;5.60;99.90;;;;;;5050458;28;20226;-84
2021/03/26 05:28:42;;;;;;;19.57;17.30;;;5.60;99.90;;;;;;5052906;28;20210;-84
2021/03/26 05:31:31;;;;;;;21.03;17.23;;;5.60;99.90;;;;;;5053712;28;20627;-83
2021/03/26 05:34:05;;;;;;;19.37;16.97;;;5.50;99.90;;;;;;5055445;28;20195;-85
2021/03/26 05:36:36;;;;;;;18.30;16.30;;;5.50;99.90;;;;;;5053613;28;20218;-84
2021/03/26 05:39:33;;;;;;;18.77;16.83;;;5.50;99.90;;;;;;5057176;28;20264;-83
2021/03/26 05:42:31;;;;;;;17.17;15.40;;;5.60;99.90;;;;;;5060562;28;20199;-85
2021/03/26 05:45:27;;;;;;;20.47;15.83;;;5.60;99.90;;;;;;5054927;28;20199;-84
2021/03/26 05:48:38;;;;;;;18.87;16.87;;;5.60;99.90;;;;;;5033065;28;20234;-84
2021/03/26 05:51:37;;;;;;;18.37;16.63;;;5.60;99.90;;;;;;5047499;28;20196;-83
2021/03/26 05:54:16;;;;;;;20.37;16.30;;;5.70;99.90;;;;;;5054220;28;20199;-83
2021/03/26 05:57:24;;;;;;;23.03;18.03;;;5.80;99.90;;;;;;5049255;28;20242;-83
2021/03/26 06:00:29;;;;;;;17.90;16.20;;;5.90;99.90;;;;;;5053525;28;20218;-83
2021/03/26 06:03:49;;;;;;;18.03;16.13;;;6.10;99.90;;;;;;5054814;28;20255;-83
2021/03/26 06:07:03;;;;;;;21.07;17.50;;;6.30;99.90;;;;;;5037783;28;20274;-84
2021/03/26 06:10:13;;;;;;;18.23;16.40;;;6.50;99.90;;;;;;5036835;28;20855;-84
2021/03/26 06:13:25;;;;;;;18.93;16.83;;;6.80;99.90;;;;;;5028519;28;20342;-84
2021/03/26 06:16:27;;;;;;;18.93;16.73;;;7.20;99.90;;;;;;5052374;28;20250;-84
2021/03/26 06:19:54;;;;;;;21.03;17.63;;;7.40;99.90;;;;;;5051677;28;20260;-84
2021/03/26 06:23:37;;;;;;;18.17;13.70;;;7.50;99.90;;;;;;5006851;28;20696;-84
2021/03/26 06:26:35;;;;;;;15.03;12.43;;;7.70;99.90;;;;;;5048940;28;20694;-84
2021/03/26 06:29:17;;;;;;;14.27;12.77;;;7.90;99.90;;;;;;5051885;28;20596;-84
2021/03/26 06:32:18;;;;;;;14.77;12.87;;;8.00;99.90;;;;;;5044964;28;20216;-84
2021/03/26 06:35:26;;;;;;;15.40;11.87;;;8.00;99.90;;;;;;5047864;28;20254;-84
2021/03/26 06:38:23;;;;;;;13.93;12.47;;;8.00;99.90;;;;;;5049744;28;20728;-84
2021/03/26 06:40:58;;;;;;;15.03;11.73;;;8.00;99.90;;;;;;5045684;28;20678;-84
2021/03/26 06:44:07;;;;;;;16.77;11.30;;;8.00;99.90;;;;;;5051233;28;20205;-84
2021/03/26 06:46:41;;;;;;;14.10;12.13;;;8.20;99.90;;;;;;5048749;28;20214;-84
2021/03/26 06:49:16;;;;;;;14.23;12.00;;;8.40;99.90;;;;;;5055034;28;20228;-84
2021/03/26 06:51:55;;;;;;;18.30;15.37;;;8.40;99.90;;;;;;5050240;28;20198;-84
2021/03/26 06:55:03;;;;;;;15.17;13.57;;;8.60;99.90;;;;;;5055054;28;20206;-84
2021/03/26 06:57:59;;;;;;;17.70;14.60;;;8.60;99.90;;;;;;5017346;28;20244;-84
2021/03/26 07:00:43;;;;;;;17.63;14.67;;;8.70;99.90;;;;;;4969108;28;20204;-84
2021/03/26 07:03:46;;;;;;;14.87;12.60;;;9.00;99.90;;;;;;5054623;28;20286;-84
2021/03/26 07:06:56;;;;;;;15.03;10.97;;;9.20;99.90;;;;;;5057033;28;20218;-83
2021/03/26 07:09:57;;;;;;;13.47;10.50;;;9.50;99.90;;;;;;5054879;28;20223;-84
2021/03/26 07:12:41;;;;;;;16.77;12.53;;;9.90;99.90;;;;;;5034134;28;20213;-84
2021/03/26 07:15:12;;;;;;;14.80;11.60;;;10.20;99.90;;;;;;5055616;28;20199;-82
2021/03/26 07:18:01;;;;;;;16.10;12.73;;;10.40;99.90;;;;;;5064908;28;20217;-84
2021/03/26 07:21:05;;;;;;;13.23;10.50;;;10.90;99.90;;;;;;5056139;28;20203;-84
2021/03/26 07:24:11;;;;;;;14.67;11.37;;;11.20;99.90;;;;;;5054669;28;20201;-84
2021/03/26 07:26:52;;;;;;;13.70;12.27;;;11.70;99.90;;;;;;4996748;28;20244;-83
2021/03/26 07:29:34;;;;;;;14.70;13.20;;;12.00;99.90;;;;;;5055321;28;20224;-84
2021/03/26 07:32:30;;;;;;;15.60;14.13;;;12.30;99.90;;;;;;5054611;28;20268;-83
2021/03/26 07:35:21;;;;;;;16.47;14.70;;;12.70;99.90;;;;;;5054094;28;20198;-82
2021/03/26 07:38:05;;;;;;;16.77;14.97;;;12.80;99.90;;;;;;5048512;28;20210;-83
2021/03/26 07:40:42;;;;;;;16.83;15.23;;;13.00;99.90;;;;;;5056766;28;20665;-84
2021/03/26 07:43:34;;;;;;;15.33;13.77;;;13.10;99.90;;;;;;5055502;28;20212;-83
2021/03/26 07:46:30;;;;;;;18.37;15.53;;;13.40;99.90;;;;;;5016597;28;20300;-83
2021/03/26 07:49:08;;;;;;;16.70;14.87;;;13.80;99.90;;;;;;5029913;28;20219;-83
2021/03/26 07:51:39;;;;;;;15.53;14.23;;;13.80;99.90;;;;;;5047781;28;20666;-83
2021/03/26 07:54:35;;;;;;;15.17;13.70;;;14.00;99.90;;;;;;5054179;28;20199;-83
2021/03/26 07:57:37;;;;;;;18.57;15.23;;;14.20;99.90;;;;;;5051631;28;20211;-83
2021/03/26 08:00:20;;;;;;;16.63;14.97;;;13.90;99.90;;;;;;5050894;28;20354;-82
2021/03/26 08:03:18;;;;;;;15.67;14.13;;;14.00;99.90;;;;;;5048498;28;20202;-84
2021/03/26 08:05:58;;;;;;;16.20;14.47;;;14.40;99.90;;;;;;5045357;28;20230;-84
2021/03/26 08:09:02;;;;;;;17.80;13.53;;;14.50;99.90;;;;;;5054117;28;20219;-84
2021/03/26 08:11:44;;;;;;;17.90;15.33;;;14.50;99.90;;;;;;5054728;28;20203;-83
2021/03/26 08:14:35;;;;;;;17.60;15.90;;;14.30;99.90;;;;;;5053830;28;20203;-84
2021/03/26 08:17:22;;;;;;;14.53;12.50;;;14.60;99.90;;;;;;5055734;28;20754;-83
2021/03/26 08:20:08;;;;;;;14.43;13.03;;;15.10;99.90;;;;;;5047833;28;20219;-85
2021/03/26 08:22:47;;;;;;;14.10;12.67;;;15.50;99.90;;;;;;5054048;28;20665;-84
2021/03/26 08:25:39;;;;;;;16.03;14.57;;;15.70;99.90;;;;;;5046757;28;20194;-83
2021/03/26 08:28:28;;;;;;;15.90;14.20;;;16.00;99.90;;;;;;5049784;28;20294;-84
2021/03/26 08:31:10;;;;;;;15.47;13.97;;;16.10;99.90;;;;;;5051298;28;20632;-83
2021/03/26 08:33:53;;;;;;;17.17;15.40;;;16.20;99.90;;;;;;5045629;28;20689;-84
2021/03/26 08:36:30;;;;;;;16.57;14.67;;;16.40;99.90;;;;;;5054142;28;20225;-84
2021/03/26 08:39:22;;;;;;;16.27;14.67;;;16.40;99.90;;;;;;5055965;28;20199;-84
2021/03/26 08:41:57;;;;;;;17.23;14.20;;;16.40;99.90;;;;;;5052243;28;20628;-84
2021/03/26 08:44:25;;;;;;;17.80;13.67;;;16.70;99.90;;;;;;5054432;28;20198;-84
2021/03/26 08:46:53;;;;;;;16.90;15.10;;;16.90;99.90;;;;;;5052808;28;20221;-84
2021/03/26 08:49:35;;;;;;;12.83;11.20;;;16.80;99.90;;;;;;5056906;28;20211;-84
2021/03/26 08:52:41;;;;;;;18.03;15.50;;;16.80;99.90;;;;;;5054848;28;20203;-84
2021/03/26 08:55:40;;;;;;;14.67;11.00;;;17.10;99.90;;;;;;5049578;28;20198;-84
2021/03/26 08:58:26;;;;;;;13.77;9.87;;;17.20;99.90;;;;;;5050042;28;20198;-83
2021/03/26 09:01:24;;;;;;;11.17;8.73;;;17.20;99.90;;;;;;5048514;28;20180;-84
2021/03/26 09:04:02;;;;;;;15.27;13.67;;;17.40;99.90;;;;;;5047087;28;20285;-84
2021/03/26 09:06:48;;;;;;;15.70;14.30;;;17.30;99.90;;;;;;5053156;28;20237;-84
2021/03/26 09:09:32;;;;;;;15.93;14.33;;;17.70;99.90;;;;;;5054702;28;20211;-84
2021/03/26 09:12:13;;;;;;;15.23;13.63;;;17.90;99.90;;;;;;5052402;28;20200;-84
2021/03/26 09:15:05;;;;;;;18.77;14.27;;;18.10;99.90;;;;;;5052272;28;20209;-84
2021/03/26 09:17:36;;;;;;;15.93;14.23;;;18.10;99.90;;;;;;5052223;28;20198;-84
2021/03/26 09:20:08;;;;;;;12.03;8.87;;;18.30;99.90;;;;;;5053461;28;20571;-84
2021/03/26 09:22:47;;;;;;;12.97;10.20;;;18.40;99.90;;;;;;5044013;28;20198;-84
2021/03/26 09:25:41;;;;;;;11.70;10.40;;;18.50;99.90;;;;;;5051332;28;20203;-84
2021/03/26 09:28:14;;;;;;;11.60;9.87;;;18.50;99.90;;;;;;5048417;28;20660;-85
2021/03/26 09:30:45;;;;;;;13.70;10.70;;;18.70;99.90;;;;;;5054041;28;20190;-84
2021/03/26 09:33:15;;;;;;;12.80;10.53;;;18.60;99.90;;;;;;5053361;28;20575;-84
2021/03/26 09:35:46;;;;;;;13.83;11.10;;;18.80;99.90;;;;;;5053360;28;20207;-84
2021/03/26 09:38:26;;;;;;;16.07;14.53;;;19.00;99.90;;;;;;5052022;28;20198;-84
2021/03/26 09:41:14;;;;;;;15.93;14.27;;;18.90;99.90;;;;;;5047123;28;20195;-84
2021/03/26 09:43:52;;;;;;;16.17;14.47;;;18.90;99.90;;;;;;5054056;28;20195;-84
2021/03/26 09:46:23;;;;;;;17.10;15.57;;;19.10;99.90;;;;;;5051161;28;20219;-84
2021/03/26 09:48:59;;;;;;;16.77;14.10;;;18.90;99.90;;;;;;5051672;28;20215;-84
2021/03/26 09:51:34;;;;;;;15.57;14.27;;;18.90;99.90;;;;;;5051719;28;20660;-84
2021/03/26 09:54:13;;;;;;;18.17;16.57;;;18.90;99.90;;;;;;5051712;28;20198;-82
2021/03/26 09:56:47;;;;;;;18.33;16.70;;;18.70;99.90;;;;;;5045442;28;20223;-84
2021/03/26 09:59:25;;;;;;;17.97;16.33;;;18.50;99.90;;;;;;5045793;28;20195;-84
2021/03/26 10:01:59;;;;;;;16.83;15.33;;;18.30;99.90;;;;;;5053178;28;20200;-84
2021/03/26 10:04:34;;;;;;;16.23;14.83;;;18.50;99.90;;;;;;5051545;28;20195;-84
2021/03/26 10:07:15;;;;;;;17.17;15.20;;;18.70;99.90;;;;;;5051478;28;20230;-84
2021/03/26 10:09:45;;;;;;;16.33;14.83;;;18.60;99.90;;;;;;5045526;28;20306;-84
2021/03/26 10:12:16;;;;;;;15.97;14.47;;;18.70;99.90;;;;;;5051576;28;20244;-84
2021/03/26 10:14:49;;;;;;;14.93;13.50;;;18.70;99.90;;;;;;5051391;28;20230;-84
2021/03/26 10:17:44;;;;;;;14.63;13.20;;;18.60;99.90;;;;;;5051790;28;20589;-84
2021/03/26 10:20:43;;;;;;;13.63;9.93;;;18.70;99.90;;;;;;5040752;28;20206;-84
2021/03/26 10:23:21;;;;;;;16.10;14.50;;;18.50;99.90;;;;;;5047182;28;20713;-83
2021/03/26 10:25:50;;;;;;;15.57;13.97;;;18.30;99.90;;;;;;5053672;28;20218;-83
2021/03/26 10:28:47;;;;;;;12.43;11.33;;;18.40;99.90;;;;;;5052956;28;20222;-84
2021/03/26 10:31:16;;;;;;;16.80;15.10;;;18.40;99.90;;;;;;5051099;28;20263;-84
2021/03/26 10:33:47;;;;;;;13.80;12.40;;;18.20;99.90;;;;;;5051906;28;20686;-84
2021/03/26 10:36:23;;;;;;;12.73;11.53;;;18.00;99.90;;;;;;5051316;28;20224;-83
2021/03/26 10:38:54;;;;;;;12.87;11.57;;;18.00;99.90;;;;;;5056214;28;20247;-84
2021/03/26 10:41:36;;;;;;;13.73;12.30;;;18.00;99.90;;;;;;5052735;28;20194;-84
2021/03/26 10:44:15;;;;;;;13.73;12.43;;;17.80;99.90;;;;;;5050856;28;20582;-84
2021/03/26 10:46:46;;;;;;;13.23;11.97;;;17.80;99.90;;;;;;5043971;28;20726;-84
2021/03/26 10:49:16;;;;;;;12.77;11.23;;;17.80;99.90;;;;;;5045236;28;20225;-83
2021/03/26 10:51:48;;;;;;;13.30;12.13;;;17.80;99.90;;;;;;5052504;28;20196;-84
2021/03/26 10:54:22;;;;;;;12.47;11.37;;;17.90;99.90;;;;;;5053063;28;20193;-83
2021/03/26 10:57:02;;;;;;;12.73;11.53;;;18.00;99.90;;;;;;5044959;28;20225;-84
2021/03/26 10:59:38;;;;;;;13.63;12.33;;;17.90;99.90;;;;;;5052970;28;20209;-84
2021/03/26 11:02:26;;;;;;;12.40;11.30;;;17.90;99.90;;;;;;5051162;28;20205;-84
2021/03/26 11:05:06;;;;;;;14.00;12.53;;;17.90;99.90;;;;;;5050743;28;20200;-84
2021/03/26 11:07:38;;;;;;;11.63;10.30;;;17.70;99.90;;;;;;5038253;28;20247;-84
2021/03/26 11:10:10;;;;;;;11.10;10.10;;;17.70;99.90;;;;;;5058559;28;20221;-84
2021/03/26 11:12:44;;;;;;;12.27;11.17;;;17.80;99.90;;;;;;5048284;28;20205;-84
2021/03/26 11:15:15;;;;;;;11.60;10.50;;;17.70;99.90;;;;;;5053042;28;20217;-82
2021/03/26 11:17:58;;;;;;;13.17;11.77;;;17.80;99.90;;;;;;5052936;28;20190;-84
2021/03/26 11:20:43;;;;;;;11.20;10.10;;;17.80;99.90;;;;;;5053649;28;20197;-84
2021/03/26 11:23:23;;;;;;;11.13;10.07;;;17.80;99.90;;;;;;5062574;28;20240;-83
2021/03/26 11:25:52;;;;;;;12.20;10.97;;;17.90;99.90;;;;;;5045874;28;20218;-83
2021/03/26 11:28:24;;;;;;;11.67;10.47;;;17.90;99.90;;;;;;5051185;28;20620;-84
2021/03/26 11:30:57;;;;;;;12.37;11.17;;;17.90;99.90;;;;;;5050929;28;20195;-83
2021/03/26 11:33:43;;;;;;;12.23;11.03;;;17.90;99.90;;;;;;5056273;28;20243;-85
2021/03/26 11:36:43;;;;;;;14.33;12.87;;;17.90;99.90;;;;;;5071025;28;20242;-83
2021/03/26 11:39:20;;;;;;;12.27;11.07;;;17.90;99.90;;;;;;5070229;28;20261;-84
2021/03/26 11:41:53;;;;;;;11.90;10.87;;;17.90;99.90;;;;;;5068391;28;20204;-84
2021/03/26 11:44:24;;;;;;;13.47;11.97;;;17.80;99.90;;;;;;5071019;28;20248;-83
2021/03/26 11:46:55;;;;;;;18.57;11.77;;;17.80;99.90;;;;;;5069909;28;20236;-84
2021/03/26 11:49:28;;;;;;;12.87;11.00;;;17.70;99.90;;;;;;5066930;28;20230;-83
2021/03/26 11:51:59;;;;;;;11.00;10.00;;;17.80;99.90;;;;;;5064914;28;20612;-84
2021/03/26 11:54:38;;;;;;;11.33;9.70;;;17.80;99.90;;;;;;5063783;28;20280;-85
2021/03/26 11:57:10;;;;;;;9.50;8.60;;;17.90;99.90;;;;;;5060587;28;20209;-84
2021/03/26 11:59:55;;;;;;;12.80;11.40;;;18.00;99.90;;;;;;5061846;28;20252;-84
2021/03/26 12:02:52;;;;;;;11.17;10.07;;;17.90;99.90;;;;;;5064669;28;20205;-83
2021/03/26 12:05:34;;;;;;;11.03;10.03;;;18.00;99.90;;;;;;5065167;28;20241;-84
2021/03/26 12:08:07;;;;;;;11.13;10.23;;;18.10;99.80;;;;;;5065527;28;20279;-84
2021/03/26 12:10:37;;;;;;;13.47;11.03;;;18.20;99.50;;;;;;5056549;28;20245;-85
2021/03/26 12:13:15;;;;;;;11.10;10.00;;;18.20;99.00;;;;;;5065031;28;20194;-84
2021/03/26 12:15:46;;;;;;;11.93;10.83;;;18.20;99.20;;;;;;5057815;28;20645;-84
2021/03/26 12:18:19;;;;;;;12.13;10.87;;;18.20;99.40;;;;;;5065633;28;20199;-84
2021/03/26 12:20:47;;;;;;;11.10;10.20;;;18.30;99.40;;;;;;5066161;28;20195;-84
2021/03/26 12:23:25;;;;;;;13.10;11.40;;;18.30;98.80;;;;;;5069915;28;20284;-84
2021/03/26 12:25:59;;;;;;;11.37;10.37;;;18.20;98.80;;;;;;5063877;28;20223;-85
2021/03/26 12:28:38;;;;;;;11.83;10.40;;;18.20;98.50;;;;;;5062154;28;20196;-84
2021/03/26 12:31:12;;;;;;;11.53;10.33;;;18.20;97.80;;;;;;5063238;28;20208;-84
2021/03/26 12:33:44;;;;;;;9.90;9.07;;;18.10;97.60;;;;;;5061887;28;20197;-84
2021/03/26 12:36:15;;;;;;;9.50;8.73;;;18.10;97.30;;;;;;5062832;28;20269;-84
2021/03/26 12:38:49;;;;;;;10.87;9.10;;;18.20;96.70;;;;;;5062006;28;20610;-84
2021/03/26 12:41:27;;;;;;;9.97;9.10;;;18.20;96.10;;;;;;5061921;28;20197;-85
2021/03/26 12:44:03;;;;;;;9.50;8.60;;;18.20;96.50;;;;;;5057303;28;20189;-85
2021/03/26 12:47:01;;;;;;;8.93;8.23;;;18.20;96.80;;;;;;5062513;28;20278;-84
2021/03/26 12:49:33;;;;;;;8.47;7.83;;;18.20;97.20;;;;;;5062145;28;20225;-82
2021/03/26 12:52:06;;;;;;;10.63;9.53;;;18.20;97.10;;;;;;5062811;28;20200;-83
2021/03/26 12:54:40;;;;;;;10.93;10.00;;;18.20;96.80;;;;;;5054026;28;20616;-83
2021/03/26 12:57:14;;;;;;;9.50;8.80;;;18.10;97.00;;;;;;5062336;28;20307;-84
2021/03/26 12:59:45;;;;;;;9.07;8.37;;;18.10;96.20;;;;;;5057578;28;20192;-82
2021/03/26 13:02:21;;;;;;;9.60;8.60;;;18.10;96.00;;;;;;5061960;28;20212;-83
2021/03/26 13:04:57;;;;;;;9.20;8.40;;;18.00;96.10;;;;;;5062095;28;20203;-83
2021/03/26 13:07:40;;;;;;;9.50;8.70;;;17.90;96.00;;;;;;5064210;28;20241;-84
2021/03/26 13:10:38;;;;;;;9.70;8.80;;;17.90;96.80;;;;;;5057653;28;20225;-84
2021/03/26 13:13:16;;;;;;;10.67;9.77;;;17.90;96.50;;;;;;5013042;28;20205;-83
2021/03/26 13:16:15;;;;;;;9.00;8.20;;;17.90;95.30;;;;;;5053942;28;20695;-84
2021/03/26 13:18:50;;;;;;;8.77;8.07;;;18.00;95.20;;;;;;5054308;28;20196;-83
2021/03/26 13:21:29;;;;;;;9.17;8.47;;;18.00;96.30;;;;;;5057702;28;20211;-84
2021/03/26 13:24:06;;;;;;;8.70;7.97;;;18.10;94.70;;;;;;5060484;28;20213;-83
2021/03/26 13:26:33;;;;;;;8.63;7.93;;;18.20;93.00;;;;;;5063215;28;20213;-84
2021/03/26 13:29:03;;;;;;;9.23;8.33;;;18.30;92.70;;;;;;5062663;28;20206;-81
2021/03/26 13:31:33;;;;;;;9.00;8.20;;;18.40;93.10;;;;;;5059882;28;20592;-82
2021/03/26 13:34:08;;;;;;;8.43;7.73;;;18.40;93.20;;;;;;5056823;28;20621;-84
2021/03/26 13:36:38;;;;;;;8.43;7.73;;;18.50;93.10;;;;;;5065659;28;20216;-83